Time;durP1;ratioP1;P1;durP2;ratioP2;P2;SDS_P1;SDS_P2;PMS_P1;PMS_P2;Temp;Humidity;BMP_temperature;BMP_pressure;BME280_temperature;BME280_humidity;BME280_pressure;Samples;Min_cycle;Max_cycle;Signal;HPM_P1;HPM_P2
2022/05/20 00:01:42;;;;;;;;;;;;;;;-140.72;100.00;52650.59;4938266;29;19926;-67
2022/05/20 00:04:08;;;;;;;;;;;;;;;-140.72;100.00;52640.44;4938249;29;19919;-67
2022/05/20 00:06:33;;;;;;;;;;;;;;;-140.72;100.00;52636.38;4938816;29;19926;-67
2022/05/20 00:08:58;;;;;;;;;;;;;;;-140.72;100.00;52626.25;4938414;29;20375;-67
2022/05/20 00:11:23;;;;;;;;;;;;;;;-140.72;100.00;52646.53;4938059;29;19919;-67
2022/05/20 00:13:48;;;;;;;;;;;;;;;-140.72;100.00;52695.25;4938051;29;19927;-67
2022/05/20 00:16:14;;;;;;;;;;;;;;;-140.72;100.00;52638.41;4937969;29;19919;-67
2022/05/20 00:18:39;;;;;;;;;;;;;;;-140.72;100.00;52650.59;4937881;29;19926;-68
2022/05/20 00:21:04;;;;;;;;;;;;;;;-140.72;100.00;52632.34;4936840;29;19919;-67
2022/05/20 00:23:31;;;;;;;;;;;;;;;-140.72;100.00;52658.72;4937793;29;20359;-68
2022/05/20 00:25:56;;;;;;;;;;;;;;;-140.72;100.00;52697.28;4937836;29;20088;-67
2022/05/20 00:28:25;;;;;;;;;;;;;;;-140.72;100.00;52689.16;4936557;29;19919;-67
2022/05/20 00:30:55;;;;;;;;;;;;;;;-140.72;100.00;52638.41;4936480;29;19970;-67
2022/05/20 00:33:20;;;;;;;;;;;;;;;-140.72;100.00;52654.66;4937604;29;19919;-67
2022/05/20 00:35:46;;;;;;;;;;;;;;;-140.72;100.00;52638.41;4937323;29;19977;-67
2022/05/20 00:38:12;;;;;;;;;;;;;;;-140.72;100.00;52636.38;4937450;29;19926;-67
2022/05/20 00:40:38;;;;;;;;;;;;;;;-140.72;100.00;52646.53;4936523;29;19923;-68
2022/05/20 00:43:22;;;;;;;;;;;;;;;-140.72;100.00;52630.31;4937125;29;20023;-67
2022/05/20 00:45:47;;;;;;;;;;;;;;;-140.72;100.00;52660.75;4936061;28;19961;-67
2022/05/20 00:48:13;;;;;;;;;;;;;;;-140.72;100.00;52620.16;4937666;29;19926;-67
2022/05/20 00:50:39;;;;;;;;;;;;;;;-140.72;100.00;52650.59;4937568;29;19927;-67
2022/05/20 00:53:05;;;;;;;;;;;;;;;-140.72;100.00;52672.91;4937323;29;19974;-67
2022/05/20 00:55:31;;;;;;;;;;;;;;;-140.72;100.00;52646.53;4935973;29;19919;-67
2022/05/20 00:58:04;;;;;;;;;;;;;;;-140.72;100.00;52660.75;4936115;29;19998;-68
2022/05/20 01:00:31;;;;;;;;;;;;;;;-140.72;100.00;52636.38;4935988;29;19919;-67
2022/05/20 01:02:58;;;;;;;;;;;;;;;-140.72;100.00;52668.84;4936690;29;20017;-67
2022/05/20 01:05:31;;;;;;;;;;;;;;;-140.72;100.00;52660.75;4937469;29;19923;-67
2022/05/20 01:07:57;;;;;;;;;;;;;;;-140.72;100.00;52658.72;4935822;29;19923;-67
2022/05/20 01:10:23;;;;;;;;;;;;;;;-140.72;100.00;52685.09;4935734;29;20001;-67
2022/05/20 01:12:49;;;;;;;;;;;;;;;-140.72;100.00;52670.88;4936931;29;19922;-67
2022/05/20 01:15:14;;;;;;;;;;;;;;;-140.72;100.00;52646.53;4936861;29;20382;-67
2022/05/20 01:17:40;;;;;;;;;;;;;;;-140.72;100.00;52668.84;4935729;29;19926;-67
2022/05/20 01:20:08;;;;;;;;;;;;;;;-140.72;100.00;52636.38;4936814;29;19918;-67
2022/05/20 01:22:39;;;;;;;;;;;;;;;-140.72;100.00;52656.69;4935524;29;19923;-67
2022/05/20 01:25:05;;;;;;;;;;;;;;;-140.72;100.00;52646.53;4936720;29;19926;-67
2022/05/20 01:27:30;;;;;;;;;;;;;;;-140.72;100.00;52654.66;4936929;29;19925;-68
2022/05/20 01:29:56;;;;;;;;;;;;;;;-140.72;100.00;52646.53;4936795;29;19922;-67
2022/05/20 01:32:21;;;;;;;;;;;;;;;-140.72;100.00;52658.72;4936270;29;19923;-67
2022/05/20 01:34:46;;;;;;;;;;;;;;;-140.72;100.00;52654.66;4936500;29;19922;-67
2022/05/20 01:37:11;;;;;;;;;;;;;;;-140.72;100.00;52672.91;4935533;29;20078;-67
2022/05/20 01:39:37;;;;;;;;;;;;;;;-140.72;100.00;52650.59;4936656;29;19919;-67
2022/05/20 01:42:03;;;;;;;;;;;;;;;-140.72;100.00;52648.56;4935298;29;19986;-67
2022/05/20 01:44:35;;;;;;;;;;;;;;;-140.72;100.00;52672.91;4936528;29;19919;-68
2022/05/20 01:47:00;;;;;;;;;;;;;;;-140.72;100.00;52670.88;4936512;29;20391;-67
2022/05/20 01:49:25;;;;;;;;;;;;;;;-140.72;100.00;52713.50;4936487;29;19923;-67
2022/05/20 01:51:55;;;;;;;;;;;;;;;-140.72;100.00;52679.00;4936868;29;19923;-67
2022/05/20 01:54:29;;;;;;;;;;;;;;;-140.72;100.00;52689.16;4935335;29;20367;-67
2022/05/20 01:56:58;;;;;;;;;;;;;;;-140.72;100.00;52654.66;4937014;29;19919;-66
2022/05/20 01:59:23;;;;;;;;;;;;;;;-140.72;100.00;52679.00;4936523;29;19919;-67
2022/05/20 02:01:53;;;;;;;;;;;;;;;-140.72;100.00;52658.72;4936353;29;19941;-67
2022/05/20 02:04:33;;;;;;;;;;;;;;;-140.72;100.00;52668.84;4935093;29;19919;-66
2022/05/20 02:07:03;;;;;;;;;;;;;;;-140.72;100.00;52705.38;4936349;29;20294;-67
2022/05/20 02:09:36;;;;;;;;;;;;;;;-140.72;100.00;52685.09;4936342;29;19930;-67
2022/05/20 02:12:01;;;;;;;;;;;;;;;-140.72;100.00;52683.06;4935303;29;19950;-66
2022/05/20 02:14:30;;;;;;;;;;;;;;;-140.72;100.00;52674.94;4936392;29;20335;-66
2022/05/20 02:17:16;;;;;;;;;;;;;;;-140.72;100.00;52683.06;4936868;29;19919;-66
2022/05/20 02:19:44;;;;;;;;;;;;;;;-140.72;100.00;52642.47;4935640;29;19954;-66
2022/05/20 02:22:17;;;;;;;;;;;;;;;-140.72;100.00;52650.59;4944318;29;19918;-66
2022/05/20 02:24:44;;;;;;;;;;;;;;;-140.72;100.00;52693.22;4955426;28;19949;-67
2022/05/20 02:27:14;;;;;;;;;;;;;;;-140.72;100.00;52725.69;4955392;29;19925;-66
2022/05/20 02:29:42;;;;;;;;;;;;;;;-140.72;100.00;52654.66;4937102;29;20338;-67
2022/05/20 02:32:27;;;;;;;;;;;;;;;-140.72;100.00;52699.31;4955461;29;20366;-67
2022/05/20 02:34:53;;;;;;;;;;;;;;;-140.72;100.00;52658.72;5107073;23;19981;-67
2022/05/20 02:37:35;;;;;;;;;;;;;;;-140.72;100.00;52674.94;4990042;28;19926;-68
2022/05/20 02:40:01;;;;;;;;;;;;;;;-140.72;100.00;52646.53;4992389;28;19918;-66
2022/05/20 02:42:28;;;;;;;;;;;;;;;-140.72;100.00;52711.47;4991964;28;19918;-67
2022/05/20 02:44:54;;;;;;;;;;;;;;;-140.72;100.00;52662.78;4988457;28;19972;-67
2022/05/20 02:47:20;;;;;;;;;;;;;;;-140.72;100.00;52670.88;4980716;28;19922;-67
2022/05/20 02:49:45;;;;;;;;;;;;;;;-140.72;100.00;52640.44;4988766;28;19924;-68
2022/05/20 02:52:10;;;;;;;;;;;;;;;-140.72;100.00;52664.81;4995486;28;19929;-67
2022/05/20 02:54:36;;;;;;;;;;;;;;;-140.72;100.00;52679.00;4995555;28;19921;-66
2022/05/20 02:57:01;;;;;;;;;;;;;;;-140.72;100.00;52687.13;4977972;28;19964;-66
2022/05/20 03:04:54;;;;;;;;;;;;;;;-140.72;100.00;52660.75;4995888;28;19925;-67
2022/05/20 03:07:20;;;;;;;;;;;;;;;-140.72;100.00;52703.34;4994795;28;20281;-66
2022/05/20 03:09:45;;;;;;;;;;;;;;;-140.72;100.00;52683.06;4995199;28;20327;-66
2022/05/20 03:12:11;;;;;;;;;;;;;;;-140.72;100.00;52679.00;4995106;28;19945;-67
2022/05/20 03:14:38;;;;;;;;;;;;;;;-140.72;100.00;52693.22;4995028;28;19968;-67
2022/05/20 03:17:03;;;;;;;;;;;;;;;-140.72;100.00;52676.97;4994940;28;20361;-66
2022/05/20 03:19:30;;;;;;;;;;;;;;;-140.72;100.00;52670.88;4977456;28;19929;-67
2022/05/20 03:21:56;;;;;;;;;;;;;;;-140.72;100.00;52642.47;4994650;28;19917;-67
2022/05/20 03:24:21;;;;;;;;;;;;;;;-140.72;100.00;52664.81;4995121;28;19940;-67
2022/05/20 03:26:47;;;;;;;;;;;;;;;-140.72;100.00;52687.13;4994889;28;20044;-66
2022/05/20 03:29:12;;;;;;;;;;;;;;;-140.72;100.00;52679.00;4995022;28;20249;-67
2022/05/20 03:31:38;;;;;;;;;;;;;;;-140.72;100.00;52650.59;4994979;28;19917;-66
2022/05/20 03:34:06;;;;;;;;;;;;;;;-140.72;100.00;52709.44;4994810;28;20285;-66
2022/05/20 03:36:36;;;;;;;;;;;;;;;-140.72;100.00;52685.09;4994567;28;20314;-66
2022/05/20 03:39:01;;;;;;;;;;;;;;;-140.72;100.00;52689.16;4994784;28;20001;-67
2022/05/20 03:41:27;;;;;;;;;;;;;;;-140.72;100.00;52691.19;4977204;28;19964;-67
2022/05/20 03:43:52;;;;;;;;;;;;;;;-140.72;100.00;52721.63;4994675;28;19918;-66
2022/05/20 03:46:17;;;;;;;;;;;;;;;-140.72;100.00;52683.06;4977177;28;20354;-66
2022/05/20 03:48:42;;;;;;;;;;;;;;;-140.72;100.00;52693.22;4994558;28;19936;-66
2022/05/20 03:51:09;;;;;;;;;;;;;;;-140.72;100.00;52715.53;4976823;28;19917;-66
2022/05/20 03:53:34;;;;;;;;;;;;;;;-140.72;100.00;52679.00;4993831;28;19918;-66
2022/05/20 03:55:59;;;;;;;;;;;;;;;-140.72;100.00;52691.19;4994310;28;19929;-67
2022/05/20 03:58:25;;;;;;;;;;;;;;;-140.72;100.00;52695.25;4994352;28;19918;-67
2022/05/20 04:03:34;;;;;;;;;;;;;;;-140.72;100.00;52685.09;4994367;28;19925;-67
2022/05/20 04:06:00;;;;;;;;;;;;;;;-140.72;100.00;52681.03;4994322;28;19921;-67
2022/05/20 04:08:27;;;;;;;;;;;;;;;-140.72;100.00;52687.13;4993994;28;20063;-67
2022/05/20 04:10:52;;;;;;;;;;;;;;;-140.72;100.00;52733.78;4994156;28;20297;-67
2022/05/20 04:13:18;;;;;;;;;;;;;;;-140.72;100.00;52707.41;4976401;28;19922;-67
2022/05/20 04:15:43;;;;;;;;;;;;;;;-140.72;100.00;52703.34;4994036;28;19917;-67
2022/05/20 04:18:08;;;;;;;;;;;;;;;-140.72;100.00;52679.00;4994453;28;19918;-67
2022/05/20 04:20:33;;;;;;;;;;;;;;;-140.72;100.00;52707.41;4993986;28;19917;-66
2022/05/20 04:22:59;;;;;;;;;;;;;;;-140.72;100.00;52703.34;4994086;28;19924;-66
2022/05/20 04:25:24;;;;;;;;;;;;;;;-140.72;100.00;52670.88;4975974;28;19965;-67
2022/05/20 04:27:49;;;;;;;;;;;;;;;-140.72;100.00;52725.69;4976376;28;19976;-66
2022/05/20 04:30:14;;;;;;;;;;;;;;;-140.72;100.00;52721.63;4993892;28;19917;-66
2022/05/20 04:32:39;;;;;;;;;;;;;;;-140.72;100.00;52687.13;4993968;28;19968;-66
2022/05/20 04:35:05;;;;;;;;;;;;;;;-140.72;100.00;52650.59;4993655;28;19980;-66
2022/05/20 04:37:30;;;;;;;;;;;;;;;-140.72;100.00;52699.31;4976234;28;20381;-67
2022/05/20 04:39:55;;;;;;;;;;;;;;;-140.72;100.00;52660.75;4993932;28;19997;-67
2022/05/20 04:47:49;;;;;;;;;;;;;;;-140.72;100.00;52658.72;4993660;28;20017;-67
2022/05/20 04:50:14;;;;;;;;;;;;;;;-140.72;100.00;52681.03;4993294;28;20421;-66
2022/05/20 04:52:40;;;;;;;;;;;;;;;-140.72;100.00;52672.91;4975516;28;20423;-67
2022/05/20 04:55:05;;;;;;;;;;;;;;;-140.72;100.00;52715.53;4993221;28;19988;-68
2022/05/20 04:57:32;;;;;;;;;;;;;;;-140.72;100.00;52660.75;4993915;28;19918;-67
2022/05/20 05:00:23;;;;;;;;;;;;;;;-140.72;100.00;52715.53;4993280;28;20008;-68
2022/05/20 05:02:49;;;;;;;;;;;;;;;-140.72;100.00;52656.69;4990888;28;19918;-67
2022/05/20 05:05:15;;;;;;;;;;;;;;;-140.72;100.00;52679.00;4971229;28;19976;-68
2022/05/20 05:07:42;;;;;;;;;;;;;;;-140.72;100.00;52689.16;4974879;28;19934;-68
2022/05/20 05:10:08;;;;;;;;;;;;;;;-140.72;100.00;52666.84;5004607;28;19959;-68
2022/05/20 05:12:33;;;;;;;;;;;;;;;-140.72;100.00;52687.13;4995177;28;19924;-67
2022/05/20 05:14:59;;;;;;;;;;;;;;;-140.72;100.00;52691.19;4998475;28;20393;-68
2022/05/20 05:20:20;;;;;;;;;;;;;;;-140.72;100.00;52660.75;4993664;28;19929;-66
2022/05/20 05:22:45;;;;;;;;;;;;;;;-140.72;100.00;52687.13;4993080;28;19971;-67
2022/05/20 05:25:11;;;;;;;;;;;;;;;-140.72;100.00;52666.84;4993094;28;20012;-66
2022/05/20 05:27:36;;;;;;;;;;;;;;;-140.72;100.00;52683.06;4992891;28;19937;-66
2022/05/20 05:30:02;;;;;;;;;;;;;;;-140.72;100.00;52654.66;4989788;28;19918;-67
2022/05/20 05:32:28;;;;;;;;;;;;;;;-140.72;100.00;52610.00;4972270;28;19929;-67
2022/05/20 05:34:53;;;;;;;;;;;;;;;-140.72;100.00;52616.09;4971241;28;20297;-66
2022/05/20 05:37:18;;;;;;;;;;;;;;;-140.72;100.00;52660.75;4972514;28;20323;-67
2022/05/20 05:39:43;;;;;;;;;;;;;;;-140.72;100.00;52630.31;4978168;28;19918;-67
2022/05/20 05:42:08;;;;;;;;;;;;;;;-140.72;100.00;52626.25;4978023;28;19925;-67
2022/05/20 05:44:34;;;;;;;;;;;;;;;-140.72;100.00;52642.47;4983556;28;19922;-67
2022/05/20 05:46:59;;;;;;;;;;;;;;;-140.72;100.00;52605.94;4983716;28;19921;-68
2022/05/20 05:49:24;;;;;;;;;;;;;;;-140.72;100.00;52624.22;4982383;28;19922;-68
2022/05/20 05:51:50;;;;;;;;;;;;;;;-140.72;100.00;52618.13;4991577;28;20012;-67
2022/05/20 05:54:16;;;;;;;;;;;;;;;-140.72;100.00;52626.25;4991829;28;19968;-67
2022/05/20 05:56:42;;;;;;;;;;;;;;;-140.72;100.00;52654.66;4992398;28;19925;-67
2022/05/20 05:59:07;;;;;;;;;;;;;;;-140.72;100.00;52634.38;4974848;28;19918;-67
2022/05/20 06:01:32;;;;;;;;;;;;;;;-140.72;100.00;52644.50;4972055;28;19960;-67
2022/05/20 06:03:58;;;;;;;;;;;;;;;-140.72;100.00;52605.94;4986213;28;19921;-68
2022/05/20 06:06:23;;;;;;;;;;;;;;;-140.72;100.00;52646.53;4974640;28;20401;-67
2022/05/20 06:08:48;;;;;;;;;;;;;;;-140.72;100.00;52607.97;4993549;28;19922;-68
2022/05/20 06:11:14;;;;;;;;;;;;;;;-140.72;100.00;52622.19;4986665;28;19948;-65
2022/05/20 06:13:40;;;;;;;;;;;;;;;-140.72;100.00;52545.06;4989990;28;20471;-67
2022/05/20 06:16:05;;;;;;;;;;;;;;;-140.72;100.00;52599.88;4988191;28;19928;-74
2022/05/20 06:18:30;;;;;;;;;;;;;;;-140.72;100.00;52595.81;4964053;28;19925;-68
2022/05/20 06:20:55;;;;;;;;;;;;;;;-140.72;100.00;52573.50;4988588;28;19922;-69
2022/05/20 06:23:20;;;;;;;;;;;;;;;-140.72;100.00;52545.06;4982264;28;20001;-70
2022/05/20 06:25:46;;;;;;;;;;;;;;;-140.72;100.00;52543.03;4973826;28;19926;-67
2022/05/20 06:28:13;;;;;;;;;;;;;;;-140.72;100.00;52522.75;4984149;28;19937;-67
2022/05/20 06:30:38;;;;;;;;;;;;;;;-140.72;100.00;52557.25;4984810;28;19941;-67
2022/05/20 06:33:04;;;;;;;;;;;;;;;-140.72;100.00;52561.31;4986991;28;19918;-68
2022/05/20 06:40:57;;;;;;;;;;;;;;;-140.72;100.00;52528.84;4968492;28;20258;-68
2022/05/20 06:43:22;;;;;;;;;;;;;;;-140.72;100.00;52593.78;4975729;28;19922;-67
2022/05/20 06:45:49;;;;;;;;;;;;;;;-140.72;100.00;52549.13;4980926;28;20335;-67
2022/05/20 06:48:15;;;;;;;;;;;;;;;-140.72;100.00;52532.91;4982736;28;19922;-67
2022/05/20 06:50:40;;;;;;;;;;;;;;;-140.72;100.00;52541.03;4979524;28;19965;-67
2022/05/20 06:53:06;;;;;;;;;;;;;;;-140.72;100.00;52569.44;4982568;28;20046;-67
2022/05/20 06:55:32;;;;;;;;;;;;;;;-140.72;100.00;52539.00;4978143;28;20282;-66
2022/05/20 06:57:57;;;;;;;;;;;;;;;-140.72;100.00;52545.06;4978215;28;19918;-68
2022/05/20 07:00:22;;;;;;;;;;;;;;;-140.72;100.00;52516.66;4978276;28;19918;-68
2022/05/20 07:02:47;;;;;;;;;;;;;;;-140.72;100.00;52502.47;4981056;28;19922;-68
2022/05/20 07:05:13;;;;;;;;;;;;;;;-140.72;100.00;52551.16;4980497;28;19944;-68
2022/05/20 07:07:38;;;;;;;;;;;;;;;-140.72;100.00;52530.88;4982030;28;19960;-67
2022/05/20 07:10:04;;;;;;;;;;;;;;;-140.72;100.00;52524.78;4979753;28;19926;-68
2022/05/20 07:12:29;;;;;;;;;;;;;;;-140.72;100.00;52508.56;4984145;28;19918;-67
2022/05/20 07:14:54;;;;;;;;;;;;;;;-140.72;100.00;52557.25;4963130;28;20023;-67
2022/05/20 07:17:20;;;;;;;;;;;;;;;-140.72;100.00;52504.50;4981172;28;19963;-68
2022/05/20 07:19:45;;;;;;;;;;;;;;;-140.72;100.00;52514.63;4969328;28;19918;-69
2022/05/20 07:22:11;;;;;;;;;;;;;;;-140.72;100.00;52506.53;4984091;28;19989;-68
2022/05/20 07:24:37;;;;;;;;;;;;;;;-140.72;100.00;52486.22;4985102;28;20322;-68
2022/05/20 07:27:02;;;;;;;;;;;;;;;-140.72;100.00;52478.13;4965496;28;20013;-68
2022/05/20 07:29:27;;;;;;;;;;;;;;;-140.72;100.00;52461.88;4986795;28;20361;-69
2022/05/20 07:31:53;;;;;;;;;;;;;;;-140.72;100.00;52461.88;5002176;28;19921;-68
2022/05/20 07:34:18;;;;;;;;;;;;;;;-140.72;100.00;52467.97;4992110;28;20012;-69
2022/05/20 07:36:43;;;;;;;;;;;;;;;-140.72;100.00;52480.16;4975447;28;19959;-68
2022/05/20 07:39:08;;;;;;;;;;;;;;;-140.72;100.00;52435.50;4977290;28;19996;-68
2022/05/20 07:41:35;;;;;;;;;;;;;;;-140.72;100.00;52472.03;4994563;28;19988;-69
2022/05/20 07:44:00;;;;;;;;;;;;;;;-140.72;100.00;52449.72;4993238;28;19933;-69
2022/05/20 07:46:25;;;;;;;;;;;;;;;-140.72;100.00;52411.16;4988337;28;19921;-68
2022/05/20 07:48:50;;;;;;;;;;;;;;;-140.72;100.00;52465.94;4977503;28;19921;-68
2022/05/20 07:51:18;;;;;;;;;;;;;;;-140.72;100.00;52429.41;4995336;28;20282;-67
2022/05/20 07:53:45;;;;;;;;;;;;;;;-140.72;100.00;52465.94;4976643;28;20020;-68
2022/05/20 07:56:13;;;;;;;;;;;;;;;-140.72;100.00;52435.50;4994825;28;20141;-68
2022/05/20 07:58:40;;;;;;;;;;;;;;;-140.72;100.00;52461.88;4994516;28;20003;-67
2022/05/20 08:01:06;;;;;;;;;;;;;;;-140.72;100.00;52443.63;4993344;28;20297;-67
2022/05/20 08:06:17;;;;;;;;;;;;;;;-140.72;100.00;52447.69;4985727;28;19924;-67
2022/05/20 08:08:42;;;;;;;;;;;;;;;-140.72;100.00;52435.50;4976619;28;19922;-66
2022/05/20 08:11:08;;;;;;;;;;;;;;;-140.72;100.00;52386.81;4994536;28;20013;-68
2022/05/20 08:13:33;;;;;;;;;;;;;;;-140.72;100.00;52392.88;4994207;28;19941;-68
2022/05/20 08:15:58;;;;;;;;;;;;;;;-140.72;100.00;52394.91;4993196;28;19929;-66
2022/05/20 08:18:24;;;;;;;;;;;;;;;-140.72;100.00;52403.03;4993908;28;19921;-69
2022/05/20 08:20:49;;;;;;;;;;;;;;;-140.72;100.00;52390.84;4994055;28;19941;-68
2022/05/20 08:23:14;;;;;;;;;;;;;;;-140.72;100.00;52370.56;4993286;28;19928;-67
2022/05/20 08:25:40;;;;;;;;;;;;;;;-140.72;100.00;52415.22;4993516;28;20318;-68
2022/05/20 08:28:05;;;;;;;;;;;;;;;-140.72;100.00;52374.63;4975055;28;19984;-67
2022/05/20 08:30:31;;;;;;;;;;;;;;;-140.72;100.00;52352.31;4993715;28;19984;-67
2022/05/20 08:32:56;;;;;;;;;;;;;;;-140.72;100.00;52427.38;4987539;28;19926;-68
2022/05/20 08:35:22;;;;;;;;;;;;;;;-140.72;100.00;52382.75;4993910;28;20060;-67
2022/05/20 08:37:48;;;;;;;;;;;;;;;-140.72;100.00;52394.91;4992980;28;20258;-68
2022/05/20 08:40:18;;;;;;;;;;;;;;;-140.72;100.00;52411.16;4991501;28;19968;-68
2022/05/20 08:42:43;;;;;;;;;;;;;;;-140.72;100.00;52372.59;4988716;28;20350;-66
2022/05/20 08:45:18;;;;;;;;;;;;;;;-140.72;100.00;52350.28;4990529;28;19937;-67
2022/05/20 08:47:46;;;;;;;;;;;;;;;-140.72;100.00;52334.03;4988987;28;19981;-68
2022/05/20 08:50:14;;;;;;;;;;;;;;;-140.72;100.00;52340.13;4988559;28;19921;-67
2022/05/20 08:52:39;;;;;;;;;;;;;;;-140.72;100.00;52344.19;4972122;28;19940;-67
2022/05/20 08:55:05;;;;;;;;;;;;;;;-140.72;100.00;52289.41;4988763;28;19930;-66
2022/05/20 08:57:33;;;;;;;;;;;;;;;-140.72;100.00;52301.59;4983294;28;20298;-67
2022/05/20 08:59:59;;;;;;;;;;;;;;;-140.72;100.00;52370.56;4968266;28;19917;-67
2022/05/20 09:02:24;;;;;;;;;;;;;;;-140.72;100.00;52364.47;4987345;28;20302;-67
2022/05/20 09:04:50;;;;;;;;;;;;;;;-140.72;100.00;52350.28;4974056;28;20005;-68
2022/05/20 09:07:16;;;;;;;;;;;;;;;-140.72;100.00;52334.03;4987603;28;19922;-67
2022/05/20 09:09:48;;;;;;;;;;;;;;;-140.72;100.00;52370.56;4992275;28;20282;-67
2022/05/20 09:12:25;;;;;;;;;;;;;;;-140.72;100.00;52342.16;4993011;28;19936;-67
2022/05/20 09:17:44;;;;;;;;;;;;;;;-140.72;100.00;52372.59;4953262;28;20354;-66
2022/05/20 09:20:10;;;;;;;;;;;;;;;-140.72;100.00;52362.44;4973929;28;19929;-68
2022/05/20 09:22:37;;;;;;;;;;;;;;;-140.72;100.00;52358.41;4991573;28;19917;-68
2022/05/20 09:25:04;;;;;;;;;;;;;;;-140.72;100.00;52380.72;4981392;28;19922;-67
2022/05/20 09:27:30;;;;;;;;;;;;;;;-140.72;100.00;52372.59;4972906;28;20029;-67
2022/05/20 09:30:01;;;;;;;;;;;;;;;-140.72;100.00;52415.22;4981002;28;20297;-67
2022/05/20 09:32:34;;;;;;;;;;;;;;;-140.72;100.00;52340.13;4992511;28;19977;-67
2022/05/20 09:35:02;;;;;;;;;;;;;;;-140.72;100.00;52305.63;4974376;28;19933;-67
2022/05/20 09:37:29;;;;;;;;;;;;;;;-140.72;100.00;52352.31;4991977;28;19930;-67
2022/05/20 09:39:54;;;;;;;;;;;;;;;-140.72;100.00;52362.44;4992579;28;19918;-67
2022/05/20 09:42:25;;;;;;;;;;;;;;;-140.72;100.00;52342.16;4984603;28;20251;-67
2022/05/20 09:44:57;;;;;;;;;;;;;;;-140.72;100.00;52297.53;4986916;28;19933;-67
2022/05/20 09:47:32;;;;;;;;;;;;;;;-140.72;100.00;52334.03;4997095;28;19922;-68
2022/05/20 09:50:03;;;;;;;;;;;;;;;-140.72;100.00;52366.50;4972178;28;20012;-67
2022/05/20 09:52:50;;;;;;;;;;;;;;;-140.72;100.00;52315.78;4990106;28;19918;-66
2022/05/20 09:55:41;;;;;;;;;;;;;;;-140.72;100.00;52315.78;4990796;28;20337;-69
2022/05/20 09:58:27;;;;;;;;;;;;;;;-140.72;100.00;52358.41;4969597;28;19922;-68
2022/05/20 10:01:01;;;;;;;;;;;;;;;-140.72;100.00;52340.13;4978783;28;20259;-67
2022/05/20 10:03:32;;;;;;;;;;;;;;;-140.72;100.00;52321.88;4973674;28;19926;-67
2022/05/20 10:06:11;;;;;;;;;;;;;;;-140.72;100.00;52299.56;4957248;28;19926;-67
2022/05/20 10:08:41;;;;;;;;;;;;;;;-140.72;100.00;52289.41;4973877;28;19918;-67
2022/05/20 10:11:10;;;;;;;;;;;;;;;-140.72;100.00;52325.94;4975897;28;19921;-68
2022/05/20 10:13:35;;;;;;;;;;;;;;;-140.72;100.00;52344.19;4989530;28;20068;-67
2022/05/20 10:16:19;;;;;;;;;;;;;;;-140.72;100.00;52289.41;4992024;28;20012;-67
2022/05/20 10:19:03;;;;;;;;;;;;;;;-140.72;100.00;52313.75;4992192;28;20271;-67
2022/05/20 10:21:34;;;;;;;;;;;;;;;-140.72;100.00;52291.44;4991562;28;20012;-66
2022/05/20 10:24:05;;;;;;;;;;;;;;;-140.72;100.00;52291.44;4984419;28;19936;-68
2022/05/20 10:26:38;;;;;;;;;;;;;;;-140.72;100.00;52273.19;4974266;28;19937;-68
2022/05/20 10:32:35;;;;;;;;;;;;;;;-140.72;100.00;52305.63;4950043;28;19985;-67
2022/05/20 10:35:02;;;;;;;;;;;;;;;-140.72;100.00;52252.88;4950004;28;20484;-67
2022/05/20 10:37:42;;;;;;;;;;;;;;;-140.72;100.00;52277.22;4966709;28;19957;-67
2022/05/20 10:40:26;;;;;;;;;;;;;;;-140.72;100.00;52267.09;4968300;28;19966;-68
2022/05/20 10:43:04;;;;;;;;;;;;;;;-140.72;100.00;52325.94;4976646;28;19986;-67
2022/05/20 10:48:36;;;;;;;;;;;;;;;-140.72;100.00;52277.22;4974449;28;19928;-68
2022/05/20 10:51:20;;;;;;;;;;;;;;;-140.72;100.00;52299.56;4970214;28;20362;-68
2022/05/20 10:53:51;;;;;;;;;;;;;;;-140.72;100.00;52346.22;4977071;28;20002;-67
2022/05/20 10:56:17;;;;;;;;;;;;;;;-140.72;100.00;52354.34;4975183;28;19929;-67
2022/05/20 10:58:58;;;;;;;;;;;;;;;-140.72;100.00;52370.56;4977834;28;19949;-67
2022/05/20 11:01:23;;;;;;;;;;;;;;;-140.72;100.00;52366.50;4983948;28;19952;-68
2022/05/20 11:04:12;;;;;;;;;;;;;;;-140.72;100.00;52378.69;4991515;28;19926;-66
2022/05/20 11:06:37;;;;;;;;;;;;;;;-140.72;100.00;52376.66;4983723;28;19922;-67
2022/05/20 11:09:03;;;;;;;;;;;;;;;-140.72;100.00;52352.31;4978639;28;19941;-67
2022/05/20 11:11:41;;;;;;;;;;;;;;;-140.72;100.00;52342.16;4980227;28;20014;-67
2022/05/20 11:14:06;;;;;;;;;;;;;;;-140.72;100.00;52332.03;4963680;28;20295;-66
2022/05/20 11:16:34;;;;;;;;;;;;;;;-140.72;100.00;52321.88;4982633;28;20023;-68
2022/05/20 11:18:59;;;;;;;;;;;;;;;-140.72;100.00;52330.00;4985128;28;19926;-67
2022/05/20 11:21:24;;;;;;;;;;;;;;;-140.72;100.00;52315.78;4982844;28;19925;-67
2022/05/20 11:23:49;;;;;;;;;;;;;;;-140.72;100.00;52295.50;4977809;28;20360;-67
2022/05/20 11:26:21;;;;;;;;;;;;;;;-140.72;100.00;52346.22;4975401;28;19918;-67
2022/05/20 11:28:58;;;;;;;;;;;;;;;-140.72;100.00;52366.50;4958003;28;19960;-67
2022/05/20 11:31:26;;;;;;;;;;;;;;;-140.72;100.00;52398.97;4994281;28;19929;-67
2022/05/20 11:33:54;;;;;;;;;;;;;;;-140.72;100.00;52366.50;4994608;28;19926;-66
2022/05/20 11:36:37;;;;;;;;;;;;;;;-140.72;100.00;52417.25;4994828;28;20323;-67
2022/05/20 11:39:27;;;;;;;;;;;;;;;-140.72;100.00;52415.22;4986100;28;19969;-67
2022/05/20 11:42:11;;;;;;;;;;;;;;;-140.72;100.00;52439.56;4957482;28;20041;-66
2022/05/20 11:44:42;;;;;;;;;;;;;;;-140.72;100.00;52447.69;4982778;28;19944;-67
2022/05/20 11:47:08;;;;;;;;;;;;;;;-140.72;100.00;52453.75;4978122;28;19925;-66
2022/05/20 11:49:38;;;;;;;;;;;;;;;-140.72;100.00;52461.88;4995713;28;19918;-66
2022/05/20 11:52:06;;;;;;;;;;;;;;;-140.72;100.00;52470.00;4995867;28;19964;-66
2022/05/20 11:54:55;;;;;;;;;;;;;;;-140.72;100.00;52463.91;4976284;28;20307;-67
2022/05/20 11:57:22;;;;;;;;;;;;;;;-140.72;100.00;52482.16;4976240;28;20309;-67
2022/05/20 11:59:50;;;;;;;;;;;;;;;-140.72;100.00;52492.31;4986850;28;19952;-66
2022/05/20 12:02:17;;;;;;;;;;;;;;;-140.72;100.00;52478.13;4995621;28;19918;-67
2022/05/20 12:04:43;;;;;;;;;;;;;;;-140.72;100.00;52465.94;4995722;28;20021;-67
2022/05/20 12:07:15;;;;;;;;;;;;;;;-140.72;100.00;52514.63;4987108;28;20375;-66
2022/05/20 12:09:42;;;;;;;;;;;;;;;-140.72;100.00;52573.50;4991688;28;19929;-67
2022/05/20 12:12:11;;;;;;;;;;;;;;;-140.72;100.00;52605.94;4995435;28;19917;-66
2022/05/20 12:14:57;;;;;;;;;;;;;;;-140.72;100.00;52565.38;4985157;28;19930;-66
2022/05/20 12:17:32;;;;;;;;;;;;;;;-140.72;100.00;52518.69;4975525;28;19918;-67
2022/05/20 12:25:43;;;;;;;;;;;;;;;-140.72;100.00;52551.16;4980103;28;20404;-66
2022/05/20 12:28:10;;;;;;;;;;;;;;;-140.72;100.00;52567.41;4994009;28;19918;-67
2022/05/20 12:30:38;;;;;;;;;;;;;;;-140.72;100.00;52569.44;4975929;28;19953;-66
2022/05/20 12:33:20;;;;;;;;;;;;;;;-140.72;100.00;52571.47;4992678;28;19932;-65
2022/05/20 12:36:05;;;;;;;;;;;;;;;-140.72;100.00;52539.00;4978296;28;20238;-66
2022/05/20 12:38:30;;;;;;;;;;;;;;;-140.72;100.00;52563.34;4972060;28;19918;-66
2022/05/20 12:40:57;;;;;;;;;;;;;;;-140.72;100.00;52571.47;4987800;28;19989;-67
2022/05/20 12:44:01;;;;;;;;;;;;;;;-140.72;100.00;52567.41;4983697;28;20321;-67
2022/05/20 12:46:41;;;;;;;;;;;;;;;-140.72;100.00;52557.25;4947674;29;19918;-66
2022/05/20 12:49:07;;;;;;;;;;;;;;;-140.72;100.00;52571.47;4934415;29;20035;-65
2022/05/20 12:51:39;;;;;;;;;;;;;;;-140.72;100.00;52569.44;4969050;28;19918;-67
2022/05/20 12:54:13;;;;;;;;;;;;;;;-140.72;100.00;52549.13;4982546;28;19918;-65
2022/05/20 12:56:38;;;;;;;;;;;;;;;-140.72;100.00;52559.28;4978054;28;19925;-66
2022/05/20 12:59:13;;;;;;;;;;;;;;;-140.72;100.00;52573.50;4974424;28;19918;-65
2022/05/20 13:01:43;;;;;;;;;;;;;;;-140.72;100.00;52553.19;4978262;28;20042;-65
2022/05/20 13:04:11;;;;;;;;;;;;;;;-140.72;100.00;52569.44;4982893;28;19953;-65